createdAt,value
2017-06-10T00:00:51.908Z,4.14
2017-06-10T00:01:51.899Z,4.17
2017-06-10T00:02:51.880Z,4.16
2017-06-10T00:03:51.865Z,4.2
2017-06-10T00:04:51.858Z,4.11
2017-06-10T00:05:51.543Z,4.18
2017-06-10T00:06:51.835Z,4.17
2017-06-10T00:07:51.819Z,4.17
2017-06-10T00:08:51.806Z,4.2
2017-06-10T00:09:51.803Z,4.21
2017-06-10T00:10:51.781Z,4.18
2017-06-10T00:11:51.769Z,4.29
2017-06-10T00:12:51.755Z,4.34
2017-06-10T00:13:51.774Z,4.35
2017-06-10T00:14:51.732Z,4.31
2017-06-10T00:15:51.713Z,4.36
2017-06-10T00:16:51.699Z,4.32
2017-06-10T00:17:51.688Z,4.18
2017-06-10T00:18:51.675Z,4.2
2017-06-10T00:19:51.666Z,4.18
2017-06-10T00:20:51.651Z,4.16
2017-06-10T00:21:51.637Z,4.17
2017-06-10T00:22:51.627Z,4.04
2017-06-10T00:23:51.612Z,4.24
2017-06-10T00:24:51.597Z,4.08
2017-06-10T00:25:51.582Z,4.2
2017-06-10T00:26:51.576Z,4.29
2017-06-10T00:27:51.562Z,4.31
2017-06-10T00:28:51.545Z,4.28
2017-06-10T00:29:51.529Z,4.34
2017-06-10T00:30:51.518Z,4.36
2017-06-10T00:31:51.508Z,4.42
2017-06-10T00:32:51.499Z,4.35
2017-06-10T00:33:51.477Z,4.39
2017-06-10T00:34:51.167Z,4.36
2017-06-10T00:35:51.455Z,4.39
2017-06-10T00:36:51.137Z,4.43
2017-06-10T00:37:51.126Z,4.43
2017-06-10T00:38:51.112Z,4.46
2017-06-10T00:39:51.400Z,4.51
2017-06-10T00:40:51.385Z,4.57
2017-06-10T00:41:51.375Z,4.49
2017-06-10T00:42:51.362Z,4.56
2017-06-10T00:43:51.355Z,4.51
2017-06-10T00:44:51.337Z,4.65
2017-06-10T00:45:51.320Z,4.53
2017-06-10T00:46:51.314Z,4.51
2017-06-10T00:47:51.293Z,4.35
2017-06-10T00:48:51.278Z,4.36
2017-06-10T00:49:51.271Z,4.35
2017-06-10T00:50:50.953Z,4.31
2017-06-10T00:51:50.936Z,3.99
2017-06-10T00:52:50.926Z,3.78
2017-06-10T00:53:51.218Z,3.77
2017-06-10T00:54:51.208Z,3.75
2017-06-10T00:55:51.191Z,3.81
2017-06-10T00:56:51.175Z,3.82
2017-06-10T00:57:51.162Z,3.92
2017-06-10T00:58:51.148Z,3.84
2017-06-10T00:59:51.136Z,3.98
2017-06-10T01:00:51.120Z,3.9
2017-06-10T01:01:51.106Z,3.99
2017-06-10T01:02:51.091Z,3.96
2017-06-10T01:03:51.080Z,3.92
2017-06-10T01:04:51.070Z,3.84
2017-06-10T01:05:51.055Z,3.84
2017-06-10T01:06:51.036Z,3.95
2017-06-10T01:07:51.024Z,3.92
2017-06-10T01:08:50.712Z,3.84
2017-06-10T01:09:50.997Z,3.96
2017-06-10T01:10:50.991Z,3.98
2017-06-10T01:11:50.969Z,4.02
2017-06-10T01:12:50.956Z,4
2017-06-10T01:13:50.948Z,3.95
2017-06-10T01:14:50.925Z,3.86
2017-06-10T01:15:50.616Z,3.82
2017-06-10T01:16:50.905Z,3.98
2017-06-10T01:17:50.891Z,3.9
2017-06-10T01:18:50.874Z,3.95
2017-06-10T01:19:50.863Z,3.95
2017-06-10T01:20:50.851Z,3.88
2017-06-10T01:21:50.833Z,3.81
2017-06-10T01:22:50.824Z,3.75
2017-06-10T01:23:50.804Z,3.78
2017-06-10T01:24:50.793Z,3.89
2017-06-10T01:25:50.787Z,3.95
2017-06-10T01:26:50.766Z,3.99
2017-06-10T01:27:50.751Z,4.11
2017-06-10T01:28:50.735Z,4.13
2017-06-10T01:29:50.728Z,4.11
2017-06-10T01:30:50.711Z,4.14
2017-06-10T01:31:50.698Z,4.2
2017-06-10T01:32:50.689Z,4.17
2017-06-10T01:33:50.673Z,3.99
2017-06-10T01:34:50.666Z,3.98
2017-06-10T01:35:50.651Z,3.84
2017-06-10T01:36:50.638Z,3.82
2017-06-10T01:37:50.632Z,3.86
2017-06-10T01:38:50.609Z,3.93
2017-06-10T01:39:50.594Z,3.98
2017-06-10T01:40:50.596Z,3.86
2017-06-10T01:41:50.574Z,3.72
2017-06-10T01:42:50.559Z,3.6
2017-06-10T01:43:50.542Z,3.64
2017-06-10T01:44:50.532Z,3.6
2017-06-10T01:45:50.518Z,3.67
2017-06-10T01:46:50.506Z,3.57
2017-06-10T01:47:50.494Z,3.62
2017-06-10T01:48:50.198Z,3.56
2017-06-10T01:49:50.467Z,3.52
2017-06-10T01:50:50.452Z,3.53
2017-06-10T01:51:50.446Z,3.49
2017-06-10T01:52:50.129Z,3.5
2017-06-10T01:53:50.416Z,3.39
2017-06-10T01:54:50.400Z,3.39
2017-06-10T01:55:50.083Z,3.41
2017-06-10T01:56:50.370Z,3.37
2017-06-10T01:57:50.354Z,3.33
2017-06-10T01:58:50.345Z,3.26
2017-06-10T01:59:50.329Z,3.3
2017-06-10T02:00:50.315Z,3.3
2017-06-10T02:01:50.301Z,3.31
2017-06-10T02:02:50.285Z,3.26
2017-06-10T02:03:49.971Z,3.23
2017-06-10T02:04:50.254Z,3.31
2017-06-10T02:05:50.243Z,3.28
2017-06-10T02:06:50.225Z,3.19
2017-06-10T02:07:50.216Z,3.25
2017-06-10T02:08:50.201Z,3.33
2017-06-10T02:09:50.185Z,3.28
2017-06-10T02:10:50.172Z,3.35
2017-06-10T02:11:49.855Z,3.34
2017-06-10T02:12:49.841Z,3.35
2017-06-10T02:13:50.129Z,3.35
2017-06-10T02:14:50.150Z,3.34
2017-06-10T02:15:50.101Z,3.41
2017-06-10T02:16:50.093Z,3.39
2017-06-10T02:17:50.078Z,3.42
2017-06-10T02:18:50.063Z,3.37
2017-06-10T02:19:50.047Z,3.37
2017-06-10T02:20:50.034Z,3.31
2017-06-10T02:21:50.019Z,3.25
2017-06-10T02:22:49.703Z,3.37
2017-06-10T02:23:49.692Z,3.54
2017-06-10T02:24:49.980Z,3.59
2017-06-10T02:25:49.967Z,3.53
2017-06-10T02:26:49.953Z,3.49
2017-06-10T02:27:49.942Z,3.52
2017-06-10T02:28:49.927Z,3.53
2017-06-10T02:29:49.913Z,3.57
2017-06-10T02:30:49.904Z,3.42
2017-06-10T02:31:49.885Z,3.39
2017-06-10T02:32:49.875Z,3.35
2017-06-10T02:33:49.863Z,3.26
2017-06-10T02:34:49.848Z,3.35
2017-06-10T02:35:49.830Z,3.37
2017-06-10T02:36:49.819Z,3.41
2017-06-10T02:37:49.806Z,3.35
2017-06-10T02:38:49.795Z,3.3
2017-06-10T02:39:49.776Z,3.44
2017-06-10T02:40:49.766Z,3.41
2017-06-10T02:41:49.752Z,3.42
2017-06-10T02:42:49.739Z,3.53
2017-06-10T02:43:49.736Z,3.57
2017-06-10T02:44:49.714Z,3.53
2017-06-10T02:45:49.696Z,3.5
2017-06-10T02:46:49.692Z,3.53
2017-06-10T02:47:49.370Z,3.52
2017-06-10T02:48:49.659Z,3.57
2017-06-10T02:49:49.646Z,3.54
2017-06-10T02:50:49.630Z,3.53
2017-06-10T02:51:49.625Z,3.49
2017-06-10T02:52:49.604Z,3.39
2017-06-10T02:53:49.593Z,3.46
2017-06-10T02:54:49.577Z,3.54
2017-06-10T02:55:49.567Z,3.49
2017-06-10T02:56:49.246Z,3.45
2017-06-10T02:57:49.535Z,3.39
2017-06-10T02:58:49.530Z,3.23
2017-06-10T02:59:49.506Z,3.41
2017-06-10T03:00:49.500Z,3.45
2017-06-10T03:01:49.481Z,3.49
2017-06-10T03:02:49.476Z,3.45
2017-06-10T03:03:49.455Z,3.49
2017-06-10T03:04:49.443Z,3.54
2017-06-10T03:05:49.429Z,3.52
2017-06-10T03:06:49.413Z,3.52
2017-06-10T03:07:49.397Z,3.49
2017-06-10T03:08:49.383Z,3.6
2017-06-10T03:09:49.370Z,3.5
2017-06-10T03:10:49.355Z,3.39
2017-06-10T03:11:49.346Z,3.37
2017-06-10T03:12:49.338Z,3.26
2017-06-10T03:13:49.312Z,3.23
2017-06-10T03:14:49.300Z,3.25
2017-06-10T03:15:49.289Z,3.37
2017-06-10T03:16:49.275Z,3.26
2017-06-10T03:17:49.260Z,3.22
2017-06-10T03:18:49.241Z,3.2
2017-06-10T03:19:49.237Z,3.13
2017-06-10T03:20:49.222Z,3.15
2017-06-10T03:21:49.204Z,3.22
2017-06-10T03:22:49.186Z,3.19
2017-06-10T03:23:49.178Z,3.19
2017-06-10T03:24:49.158Z,3.19
2017-06-10T03:25:49.147Z,3.22
2017-06-10T03:26:49.133Z,3.28
2017-06-10T03:27:49.121Z,3.26
2017-06-10T03:28:49.100Z,3.31
2017-06-10T03:29:49.095Z,3.28
2017-06-10T03:30:49.079Z,3.23
2017-06-10T03:31:49.063Z,3.26
2017-06-10T03:32:49.046Z,3.26
2017-06-10T03:33:49.036Z,3.28
2017-06-10T03:34:49.031Z,3.23
2017-06-10T03:35:49.007Z,3.33
2017-06-10T03:36:48.993Z,3.31
2017-06-10T03:37:48.982Z,3.22
2017-06-10T03:38:48.969Z,3.22
2017-06-10T03:39:48.950Z,3.25
2017-06-10T03:40:48.934Z,3.23
2017-06-10T03:41:48.927Z,3.25
2017-06-10T03:42:48.915Z,3.19
2017-06-10T03:43:48.896Z,3.15
2017-06-10T03:44:48.881Z,3.16
2017-06-10T03:45:48.867Z,3.13
2017-06-10T03:46:48.852Z,3.15
2017-06-10T03:47:48.837Z,3.2
2017-06-10T03:48:48.821Z,3.28
2017-06-10T03:49:48.809Z,3.2
2017-06-10T03:50:48.794Z,3.17
2017-06-10T03:51:48.783Z,3.08
2017-06-10T03:52:48.776Z,3.23
2017-06-10T03:53:48.751Z,3.25
2017-06-10T03:54:48.739Z,3.2
2017-06-10T03:55:48.723Z,3.19
2017-06-10T03:56:48.407Z,3.2
2017-06-10T03:57:48.696Z,3.17
2017-06-10T03:58:48.681Z,3.15
2017-06-10T03:59:48.366Z,3.26
2017-06-10T04:00:48.649Z,3.34
2017-06-10T04:01:48.637Z,3.2
2017-06-10T04:02:48.624Z,3.23
2017-06-10T04:03:48.609Z,3.22
2017-06-10T04:04:48.593Z,3.15
2017-06-10T04:05:48.580Z,3.2
2017-06-10T04:06:48.566Z,3.1
2017-06-10T04:07:48.550Z,3.12
2017-06-10T04:08:48.536Z,3.15
2017-06-10T04:09:48.521Z,3.16
2017-06-10T04:10:48.509Z,3.19
2017-06-10T04:11:48.493Z,3.13
2017-06-10T04:12:48.477Z,3.08
2017-06-10T04:13:48.469Z,3.15
2017-06-10T04:14:48.446Z,3.08
2017-06-10T04:15:48.439Z,3.12
2017-06-10T04:16:48.422Z,3.22
2017-06-10T04:17:48.400Z,3.17
2017-06-10T04:18:48.392Z,3.22
2017-06-10T04:19:48.375Z,3.22
2017-06-10T04:20:48.363Z,3.23
2017-06-10T04:21:48.346Z,3.2
2017-06-10T04:22:48.337Z,3.19
2017-06-10T04:23:48.315Z,3.15
2017-06-10T04:24:48.301Z,3.07
2017-06-10T04:25:47.988Z,3.1
2017-06-10T04:26:48.275Z,3.1
2017-06-10T04:27:48.260Z,3.12
2017-06-10T04:28:48.245Z,3.12
2017-06-10T04:29:48.231Z,3.15
2017-06-10T04:30:47.917Z,3.13
2017-06-10T04:31:48.199Z,3.13
2017-06-10T04:32:47.888Z,3.19
2017-06-10T04:33:48.172Z,3.19
2017-06-10T04:34:48.155Z,3.26
2017-06-10T04:35:48.141Z,3.28
2017-06-10T04:36:48.476Z,3.19
2017-06-10T04:37:48.130Z,3.08
2017-06-10T04:38:48.105Z,3.02
2017-06-10T04:39:47.784Z,3.01
2017-06-10T04:40:47.767Z,2.99
2017-06-10T04:41:47.755Z,3.02
2017-06-10T04:42:48.044Z,3.02
2017-06-10T04:43:48.028Z,3.02
2017-06-10T04:44:48.014Z,3.1
2017-06-10T04:45:47.693Z,2.98
2017-06-10T04:46:47.986Z,3.02
2017-06-10T04:47:47.670Z,3.01
2017-06-10T04:48:47.959Z,2.97
2017-06-10T04:49:47.638Z,2.97
2017-06-10T04:50:47.627Z,3.01
2017-06-10T04:51:47.606Z,2.9
2017-06-10T04:52:47.593Z,3.01
2017-06-10T04:53:47.578Z,2.83
2017-06-10T04:54:47.866Z,3.04
2017-06-10T04:55:47.547Z,3.13
2017-06-10T04:56:47.540Z,3.12
2017-06-10T04:57:47.523Z,2.92
2017-06-10T04:58:47.505Z,2.86
2017-06-10T04:59:47.793Z,2.98
2017-06-10T05:00:47.777Z,2.94
2017-06-10T05:01:47.764Z,2.86
2017-06-10T05:02:47.749Z,2.97
2017-06-10T05:03:47.738Z,2.95
2017-06-10T05:04:47.720Z,2.95
2017-06-10T05:05:47.704Z,2.97
2017-06-10T05:06:47.695Z,3.07
2017-06-10T05:07:47.673Z,3.15
2017-06-10T05:08:47.364Z,2.98
2017-06-10T05:09:47.343Z,2.94
2017-06-10T05:10:47.635Z,2.98
2017-06-10T05:11:47.620Z,3.07
2017-06-10T05:12:47.608Z,2.99
2017-06-10T05:13:47.590Z,3.01
2017-06-10T05:14:47.575Z,3.05
2017-06-10T05:15:47.255Z,2.99
2017-06-10T05:16:47.547Z,3.05
2017-06-10T05:17:47.526Z,2.99
2017-06-10T05:18:47.516Z,2.98
2017-06-10T05:19:47.500Z,2.99
2017-06-10T05:20:47.184Z,2.97
2017-06-10T05:21:47.474Z,3.13
2017-06-10T05:22:47.461Z,2.94
2017-06-10T05:23:47.445Z,3.02
2017-06-10T05:24:47.425Z,2.98
2017-06-10T05:25:47.411Z,2.98
2017-06-10T05:26:47.397Z,2.95
2017-06-10T05:27:47.378Z,2.97
2017-06-10T05:28:47.373Z,3.15
2017-06-10T05:29:47.353Z,3.07
2017-06-10T05:30:47.340Z,3.08
2017-06-10T05:31:47.021Z,2.97
2017-06-10T05:32:47.008Z,2.95
2017-06-10T05:33:47.291Z,2.95
2017-06-10T05:34:47.279Z,3.01
2017-06-10T05:35:47.266Z,2.9
2017-06-10T05:36:47.250Z,2.95
2017-06-10T05:37:47.233Z,2.97
2017-06-10T05:38:47.221Z,2.74
2017-06-10T05:39:47.204Z,2.86
2017-06-10T05:40:47.190Z,2.98
2017-06-10T05:41:46.878Z,3.04
2017-06-10T05:42:47.162Z,2.86
2017-06-10T05:43:47.143Z,2.81
2017-06-10T05:44:47.131Z,2.84
2017-06-10T05:45:47.113Z,2.89
2017-06-10T05:46:47.099Z,3.12
2017-06-10T05:47:47.086Z,3.07
2017-06-10T05:48:47.072Z,2.92
2017-06-10T05:49:47.054Z,3.01
2017-06-10T05:50:47.046Z,2.87
2017-06-10T05:51:47.029Z,2.98
2017-06-10T05:52:47.011Z,2.95
2017-06-10T05:53:47.021Z,3.01
2017-06-10T05:54:46.680Z,2.94
2017-06-10T05:55:46.970Z,2.9
2017-06-10T05:56:46.957Z,2.98
2017-06-10T05:57:46.940Z,2.97
2017-06-10T05:58:46.922Z,2.98
2017-06-10T05:59:46.904Z,2.98
2017-06-10T06:00:46.897Z,2.98
2017-06-10T06:01:46.876Z,2.98
2017-06-10T06:02:46.859Z,2.95
2017-06-10T06:03:46.855Z,2.97
2017-06-10T06:04:46.836Z,3.04
2017-06-10T06:05:46.824Z,2.95
2017-06-10T06:06:46.807Z,2.98
2017-06-10T06:07:46.789Z,2.97
2017-06-10T06:08:46.473Z,3.19
2017-06-10T06:09:46.759Z,3.1
2017-06-10T06:10:46.745Z,3.12
2017-06-10T06:11:46.729Z,2.97
2017-06-10T06:12:46.717Z,2.98
2017-06-10T06:13:46.700Z,3.1
2017-06-10T06:14:46.693Z,3.15
2017-06-10T06:15:46.671Z,2.94
2017-06-10T06:16:46.661Z,2.95
2017-06-10T06:17:46.646Z,3.01
2017-06-10T06:18:46.627Z,2.97
2017-06-10T06:19:46.614Z,3.02
2017-06-10T06:20:46.605Z,3.1
2017-06-10T06:21:46.586Z,3.1
2017-06-10T06:22:46.568Z,3.01
2017-06-10T06:23:46.254Z,2.97
2017-06-10T06:24:46.239Z,3.07
2017-06-10T06:25:46.223Z,2.98
2017-06-10T06:26:46.517Z,3.1
2017-06-10T06:27:46.496Z,3.2
2017-06-10T06:28:46.479Z,3.19
2017-06-10T06:29:46.465Z,3.2
2017-06-10T06:30:46.453Z,3.08
2017-06-10T06:31:46.437Z,3.01
2017-06-10T06:32:46.421Z,3.22
2017-06-10T06:33:46.107Z,3.04
2017-06-10T06:34:46.396Z,3.07
2017-06-10T06:35:46.378Z,2.99
2017-06-10T06:36:46.365Z,2.97
2017-06-10T06:37:46.349Z,3.01
2017-06-10T06:38:46.333Z,3.08
2017-06-10T06:39:46.323Z,3.12
2017-06-10T06:40:46.001Z,3.08
2017-06-10T06:41:45.988Z,3.08
2017-06-10T06:42:45.974Z,3.01
2017-06-10T06:43:46.261Z,3.05
2017-06-10T06:44:46.250Z,3.07
2017-06-10T06:45:45.927Z,3.1
2017-06-10T06:46:46.219Z,2.98
2017-06-10T06:47:46.202Z,3.07
2017-06-10T06:48:45.891Z,3.1
2017-06-10T06:49:46.170Z,3.08
2017-06-10T06:50:46.153Z,2.97
2017-06-10T06:51:46.139Z,3.12
2017-06-10T06:52:46.128Z,3.12
2017-06-10T06:53:46.112Z,3.26
2017-06-10T06:54:46.300Z,3.26
2017-06-10T06:55:46.083Z,3.17
2017-06-10T06:56:46.065Z,3.25
2017-06-10T06:57:46.055Z,3.54
2017-06-10T06:58:46.037Z,3.62
2017-06-10T06:59:46.022Z,3.6
2017-06-10T07:00:46.011Z,3.41
2017-06-10T07:01:45.998Z,3.41
2017-06-10T07:02:45.979Z,3.37
2017-06-10T07:03:45.965Z,3.42
2017-06-10T07:04:45.954Z,3.45
2017-06-10T07:05:45.934Z,3.57
2017-06-10T07:06:45.621Z,3.56
2017-06-10T07:07:45.903Z,3.41
2017-06-10T07:08:45.891Z,3.3
2017-06-10T07:09:45.577Z,3.28
2017-06-10T07:10:45.862Z,3.42
2017-06-10T07:11:45.851Z,3.26
2017-06-10T07:12:45.833Z,3.52
2017-06-10T07:13:45.820Z,3.46
2017-06-10T07:14:45.808Z,3.7
2017-06-10T07:15:45.794Z,3.52
2017-06-10T07:16:45.776Z,3.59
2017-06-10T07:17:45.774Z,3.53
2017-06-10T07:18:45.750Z,3.56
2017-06-10T07:19:45.729Z,3.56
2017-06-10T07:20:45.719Z,3.67
2017-06-10T07:21:45.706Z,3.99
2017-06-10T07:22:45.687Z,3.84
2017-06-10T07:23:45.674Z,3.96
2017-06-10T07:24:45.866Z,4.11
2017-06-10T07:25:45.852Z,4.51
2017-06-10T07:26:45.649Z,4.28
2017-06-10T07:27:45.316Z,4.18
2017-06-10T07:28:45.628Z,4.2
2017-06-10T07:29:45.289Z,4.38
2017-06-10T07:30:45.575Z,4.2
2017-06-10T07:31:45.563Z,4.04
2017-06-10T07:32:45.547Z,4
2017-06-10T07:33:45.530Z,4.83
2017-06-10T07:34:45.536Z,5.37
2017-06-10T07:35:45.502Z,5.47
2017-06-10T07:36:45.500Z,5.14
2017-06-10T07:37:45.494Z,4.83
2017-06-10T07:38:45.192Z,5.65
2017-06-10T07:39:45.468Z,5.11
2017-06-10T07:40:45.451Z,4.9
2017-06-10T07:41:45.440Z,4.75
2017-06-10T07:42:45.414Z,4.5
2017-06-10T07:43:45.394Z,4.28
2017-06-10T07:44:45.386Z,4.34
2017-06-10T07:45:45.371Z,4.29
2017-06-10T07:46:45.352Z,4.8
2017-06-10T07:47:45.038Z,4.79
2017-06-10T07:48:45.324Z,5.22
2017-06-10T07:49:45.311Z,5.32
2017-06-10T07:50:45.298Z,4.86
2017-06-10T07:51:45.280Z,4.83
2017-06-10T07:52:45.271Z,5.38
2017-06-10T07:53:45.254Z,5.47
2017-06-10T07:54:45.241Z,5.92
2017-06-10T07:55:45.230Z,5.74
2017-06-10T07:56:45.219Z,4.74
2017-06-10T07:57:45.202Z,4.46
2017-06-10T07:58:45.185Z,4.38
2017-06-10T07:59:45.372Z,4.53
2017-06-10T08:00:45.158Z,4.61
2017-06-10T08:01:45.152Z,4.79
2017-06-10T08:02:45.132Z,4.71
2017-06-10T08:03:45.118Z,4.71
2017-06-10T08:04:44.802Z,4.86
2017-06-10T08:05:45.092Z,5.38
2017-06-10T08:06:45.081Z,5.12
2017-06-10T08:07:45.064Z,5.17
2017-06-10T08:08:45.047Z,4.65
2017-06-10T08:09:45.038Z,4.67
2017-06-10T08:10:45.027Z,4.67
2017-06-10T08:11:44.716Z,4.68
2017-06-10T08:12:44.997Z,4.88
2017-06-10T08:13:44.985Z,4.83
2017-06-10T08:14:44.974Z,5.12
2017-06-10T08:15:44.957Z,5.44
2017-06-10T08:16:44.940Z,5.12
2017-06-10T08:17:44.928Z,5.55
2017-06-10T08:18:44.611Z,6.53
2017-06-10T08:19:44.900Z,6.3
2017-06-10T08:20:44.885Z,6.06
2017-06-10T08:21:44.878Z,6.05
2017-06-10T08:22:44.857Z,6.01
2017-06-10T08:23:44.850Z,5.93
2017-06-10T08:24:44.833Z,6.91
2017-06-10T08:25:44.822Z,6.82
2017-06-10T08:26:44.810Z,6.57
2017-06-10T08:27:44.824Z,6.51
2017-06-10T08:28:44.781Z,6.35
2017-06-10T08:29:59.382Z,5.51
2017-06-10T08:31:11.966Z,6.02
2017-06-10T08:31:44.746Z,6.33
2017-06-10T08:32:44.732Z,6.65
2017-06-10T08:33:44.723Z,7.05
2017-06-10T08:34:44.702Z,6.36
2017-06-10T08:35:44.392Z,5.38
2017-06-10T08:36:44.383Z,4.96
2017-06-10T08:37:44.668Z,5.14
2017-06-10T08:38:44.651Z,5.08
2017-06-10T08:39:44.643Z,4.84
2017-06-10T08:40:44.657Z,4.74
2017-06-10T08:41:44.627Z,4.67
2017-06-10T08:42:44.604Z,5.05
2017-06-10T08:43:44.585Z,5.27
2017-06-10T08:44:44.583Z,4.93
2017-06-10T08:45:44.564Z,5.24
2017-06-10T08:46:44.546Z,5.62
2017-06-10T08:47:44.543Z,5.75
2017-06-10T08:48:44.549Z,5.2
2017-06-10T08:49:43.907Z,5.52
2017-06-10T08:50:44.500Z,5.66
2017-06-10T08:51:44.489Z,5.66
2017-06-10T08:52:44.499Z,5.62
2017-06-10T08:53:44.157Z,5.83
2017-06-10T08:54:44.144Z,6.08
2017-06-10T08:55:44.432Z,5.67
2017-06-10T08:56:44.418Z,5.83
2017-06-10T08:57:44.413Z,5.8
2017-06-10T08:58:44.394Z,5.52
2017-06-10T08:59:44.384Z,5.87
2017-06-10T09:00:44.365Z,5.98
2017-06-10T09:01:44.356Z,5.66
2017-06-10T09:02:44.337Z,5.47
2017-06-10T09:03:44.329Z,5.93
2017-06-10T09:04:44.311Z,6.2
2017-06-10T09:05:44.504Z,6.3
2017-06-10T09:06:44.288Z,7
2017-06-10T09:07:44.278Z,7.41
2017-06-10T09:08:44.261Z,6.97
2017-06-10T09:09:44.251Z,6.91
2017-06-10T09:10:44.467Z,5.81
2017-06-10T09:11:44.430Z,5.29
2017-06-10T09:12:44.213Z,5.01
2017-06-10T09:13:44.200Z,5.23
2017-06-10T09:14:44.192Z,4.86
2017-06-10T09:15:44.174Z,4.62
2017-06-10T09:16:44.161Z,4.59
2017-06-10T09:17:43.846Z,4.72
2017-06-10T09:18:43.838Z,5.29
2017-06-10T09:19:44.125Z,5.98
2017-06-10T09:20:44.108Z,5.78
2017-06-10T09:21:44.097Z,5.55
2017-06-10T09:22:44.082Z,5.95
2017-06-10T09:23:44.073Z,6.21
2017-06-10T09:24:44.060Z,5.96
2017-06-10T09:25:44.041Z,5.55
2017-06-10T09:26:44.033Z,5.73
2017-06-10T09:27:44.021Z,5.75
2017-06-10T09:28:44.008Z,5.75
2017-06-10T09:29:43.993Z,5.47
2017-06-10T09:30:43.978Z,5.33
2017-06-10T09:31:43.972Z,5.38
2017-06-10T09:32:43.954Z,5.51
2017-06-10T09:33:43.945Z,5.67
2017-06-10T09:34:43.932Z,5.17
2017-06-10T09:35:43.917Z,5.38
2017-06-10T09:36:43.907Z,5.95
2017-06-10T09:37:43.894Z,6.02
2017-06-10T09:38:43.575Z,6.06
2017-06-10T09:39:43.868Z,5.8
2017-06-10T09:40:43.881Z,5.73
2017-06-10T09:41:43.868Z,5.83
2017-06-10T09:42:43.828Z,5.63
2017-06-10T09:43:43.813Z,6.35
2017-06-10T09:44:43.803Z,6.64
2017-06-10T09:45:43.491Z,6.02
2017-06-10T09:46:43.775Z,6.58
2017-06-10T09:47:43.766Z,6.51
2017-06-10T09:48:43.749Z,6.39
2017-06-10T09:49:43.737Z,6.83
2017-06-10T09:50:43.425Z,7.39
2017-06-10T09:51:43.716Z,6.99
2017-06-10T09:52:43.702Z,7.41
2017-06-10T09:53:43.688Z,7.47
2017-06-10T09:54:43.677Z,8.06
2017-06-10T09:55:43.666Z,7.51
2017-06-10T09:56:43.652Z,7.45
2017-06-10T09:57:43.641Z,7.48
2017-06-10T09:58:43.633Z,7.01
2017-06-10T09:59:43.620Z,7.23
2017-06-10T10:00:43.609Z,7.3
2017-06-10T10:01:43.293Z,7.58
2017-06-10T10:02:43.581Z,7.74
2017-06-10T10:03:43.266Z,7.34
2017-06-10T10:04:43.560Z,7.45
2017-06-10T10:05:43.549Z,7.57
2017-06-10T10:06:43.234Z,8.27
2017-06-10T10:07:43.522Z,8.73
2017-06-10T10:08:43.515Z,8.22
2017-06-10T10:09:43.500Z,8.37
2017-06-10T10:10:43.491Z,8.13
2017-06-10T10:11:43.479Z,7.77
2017-06-10T10:12:43.464Z,7.37
2017-06-10T10:13:43.460Z,7.3
2017-06-10T10:14:43.444Z,8.02
2017-06-10T10:15:43.435Z,8.14
2017-06-10T10:16:43.120Z,7.94
2017-06-10T10:17:43.112Z,7.6
2017-06-10T10:18:43.396Z,7.58
2017-06-10T10:19:43.399Z,7.74
2017-06-10T10:20:43.374Z,8.13
2017-06-10T10:21:43.365Z,8.83
2017-06-10T10:22:43.351Z,8.46
2017-06-10T10:23:43.342Z,8.28
2017-06-10T10:24:43.330Z,7.81
2017-06-10T10:25:43.316Z,7.76
2017-06-10T10:26:43.320Z,7.62
2017-06-10T10:27:43.296Z,7.88
2017-06-10T10:28:43.287Z,8.02
2017-06-10T10:29:43.272Z,7.88
2017-06-10T10:30:43.295Z,7.44
2017-06-10T10:31:43.256Z,7.11
2017-06-10T10:32:43.239Z,6.82
2017-06-10T10:33:43.245Z,7.37
2017-06-10T10:34:43.244Z,8.47
2017-06-10T10:35:43.209Z,9.13
2017-06-10T10:36:43.222Z,9.32
2017-06-10T10:37:42.886Z,8.49
2017-06-10T10:38:43.191Z,7.39
2017-06-10T10:39:43.163Z,7.09
2017-06-10T10:40:42.857Z,7.33
2017-06-10T10:41:42.847Z,8.06
2017-06-10T10:42:43.131Z,8.36
2017-06-10T10:43:43.150Z,8.29
2017-06-10T10:44:43.114Z,8.42
2017-06-10T10:45:43.115Z,8.64
2017-06-10T10:46:43.101Z,8.67
2017-06-10T10:47:42.781Z,8.61
2017-06-10T10:48:42.768Z,8.73
2017-06-10T10:49:42.759Z,9.52
2017-06-10T10:50:42.747Z,9.99
2017-06-10T10:51:43.066Z,10.2
2017-06-10T10:52:43.046Z,10.24
2017-06-10T10:53:43.037Z,9.58
2017-06-10T10:54:43.010Z,8.52
2017-06-10T10:55:43.000Z,8.65
2017-06-10T10:56:42.990Z,8.54
2017-06-10T10:57:42.976Z,8.31
2017-06-10T10:58:42.970Z,8.02
2017-06-10T10:59:42.957Z,8.03
2017-06-10T11:00:42.943Z,7.7
2017-06-10T11:01:42.939Z,7.23
2017-06-10T11:02:42.925Z,6.75
2017-06-10T11:03:42.911Z,6.42
2017-06-10T11:04:42.905Z,6.01
2017-06-10T11:05:42.890Z,6.02
2017-06-10T11:06:42.891Z,6.35
2017-06-10T11:07:42.874Z,6.55
2017-06-10T11:08:42.860Z,6.82
2017-06-10T11:09:42.855Z,7.07
2017-06-10T11:10:42.839Z,7.45
2017-06-10T11:11:42.829Z,8.2
2017-06-10T11:12:42.816Z,9
2017-06-10T11:13:42.506Z,9.06
2017-06-10T11:14:42.794Z,9.2
2017-06-10T11:15:42.785Z,9
2017-06-10T11:16:42.774Z,8.13
2017-06-10T11:17:42.464Z,7.77
2017-06-10T11:18:42.755Z,8.37
2017-06-10T11:19:42.745Z,8.17
2017-06-10T11:20:42.730Z,7.73
2017-06-10T11:21:42.730Z,8.34
2017-06-10T11:22:42.710Z,8.76
2017-06-10T11:23:42.400Z,9.06
2017-06-10T11:24:42.387Z,9.08
2017-06-10T11:25:42.381Z,8.7
2017-06-10T11:26:42.674Z,8.52
2017-06-10T11:27:42.659Z,8.04
2017-06-10T11:28:42.654Z,7.62
2017-06-10T11:29:42.638Z,7.32
2017-06-10T11:30:42.649Z,6.99
2017-06-10T11:31:42.620Z,6.72
2017-06-10T11:32:42.611Z,6.38
2017-06-10T11:33:42.596Z,6.3
2017-06-10T11:34:42.589Z,6.3
2017-06-10T11:35:42.576Z,6.38
2017-06-10T11:36:42.561Z,6.71
2017-06-10T11:37:42.552Z,7.33
2017-06-10T11:38:42.241Z,7.62
2017-06-10T11:39:42.531Z,8.37
2017-06-10T11:40:42.220Z,9.23
2017-06-10T11:41:42.511Z,9.49
2017-06-10T11:42:42.497Z,10.09
2017-06-10T11:43:42.486Z,9.49
2017-06-10T11:44:42.476Z,10.02
2017-06-10T11:45:42.475Z,9.75
2017-06-10T11:46:42.457Z,9.41
2017-06-10T11:47:42.444Z,9.08
2017-06-10T11:48:42.435Z,8.67
2017-06-10T11:49:42.426Z,8.73
2017-06-10T11:50:42.414Z,8.54
2017-06-10T11:51:42.409Z,8.45
2017-06-10T11:52:41.793Z,8.12
2017-06-10T11:53:42.381Z,7.73
2017-06-10T11:54:42.381Z,7.41
2017-06-10T11:55:42.369Z,7.55
2017-06-10T11:56:42.356Z,8.03
2017-06-10T11:57:42.344Z,8.37
2017-06-10T11:58:42.038Z,8.07
2017-06-10T11:59:42.331Z,8.31
2017-06-10T12:00:42.312Z,8.39
2017-06-10T12:01:42.308Z,8.52
2017-06-10T12:02:42.293Z,8.34
2017-06-10T12:03:42.282Z,8.17
2017-06-10T12:04:42.272Z,7.71
2017-06-10T12:05:42.265Z,7.77
2017-06-10T12:06:42.249Z,7.55
2017-06-10T12:07:41.940Z,7.52
2017-06-10T12:08:42.230Z,7.01
2017-06-10T12:09:42.222Z,7.01
2017-06-10T12:10:42.209Z,6.82
2017-06-10T12:11:42.201Z,6.96
2017-06-10T12:12:42.192Z,6.97
2017-06-10T12:13:42.179Z,7.41
2017-06-10T12:14:42.169Z,7.6
2017-06-10T12:15:42.154Z,7.09
2017-06-10T12:16:42.144Z,6.71
2017-06-10T12:17:42.141Z,6.86
2017-06-10T12:18:42.126Z,7.44
2017-06-10T12:19:42.114Z,7.48
2017-06-10T12:20:42.096Z,6.97
2017-06-10T12:21:42.086Z,7.08
2017-06-10T12:22:42.109Z,7.11
2017-06-10T12:23:42.066Z,6.96
2017-06-10T12:24:42.058Z,6.99
2017-06-10T12:25:41.739Z,7.19
2017-06-10T12:26:41.734Z,7.39
2017-06-10T12:27:42.018Z,7.71
2017-06-10T12:28:42.013Z,7.96
2017-06-10T12:29:41.994Z,7.99
2017-06-10T12:30:41.383Z,8
2017-06-10T12:31:41.975Z,7.91
2017-06-10T12:32:41.965Z,7.96
2017-06-10T12:33:41.953Z,8.27
2017-06-10T12:34:41.944Z,8.5
2017-06-10T12:35:41.936Z,8.64
2017-06-10T12:36:41.926Z,8.71
2017-06-10T12:37:41.911Z,9.08
2017-06-10T12:38:41.902Z,9.38
2017-06-10T12:39:41.894Z,9.17
2017-06-10T12:40:41.883Z,9.34
2017-06-10T12:41:41.870Z,9.89
2017-06-10T12:42:41.865Z,9.59
2017-06-10T12:43:41.854Z,9.78
2017-06-10T12:44:41.847Z,10.6
2017-06-10T12:45:41.833Z,11.33
2017-06-10T12:46:41.822Z,10.8
2017-06-10T12:47:41.817Z,9.88
2017-06-10T12:48:41.807Z,9.95
2017-06-10T12:49:41.795Z,10.01
2017-06-10T12:50:41.485Z,9.88
2017-06-10T12:51:41.783Z,9.85
2017-06-10T12:52:41.770Z,10.39
2017-06-10T12:53:41.758Z,10.93
2017-06-10T12:54:41.750Z,10.83
2017-06-10T12:55:41.739Z,10.87
2017-06-10T12:56:41.732Z,11.11
2017-06-10T12:57:41.724Z,11.46
2017-06-10T12:58:41.410Z,10.94
2017-06-10T12:59:41.701Z,10.51
2017-06-10T13:00:41.705Z,10.46
2017-06-10T13:01:41.687Z,10.72
2017-06-10T13:02:41.678Z,11.42
2017-06-10T13:03:41.670Z,11.26
2017-06-10T13:04:41.666Z,10.91
2017-06-10T13:05:41.651Z,10.49
2017-06-10T13:06:41.640Z,10.34
2017-06-10T13:07:41.634Z,10.24
2017-06-10T13:08:41.626Z,10.68
2017-06-10T13:09:41.314Z,10.83
2017-06-10T13:10:41.606Z,10.95
2017-06-10T13:11:41.600Z,11.41
2017-06-10T13:12:41.590Z,12.22
2017-06-10T13:13:41.583Z,12.62
2017-06-10T13:14:41.579Z,11.67
2017-06-10T13:15:41.267Z,11.46
2017-06-10T13:16:41.258Z,11.93
2017-06-10T13:17:41.553Z,11.82
2017-06-10T13:18:41.243Z,11.66
2017-06-10T13:19:41.535Z,11.11
2017-06-10T13:20:41.529Z,10.55